sensor_id;sensor_type;location;lat;lon;timestamp;P1;durP1;ratioP1;P2;durP2;ratioP2
68888;SDS011;55930;47.412;8.790;2023-06-19T00:02:55;7.82;;;4.95;;
68888;SDS011;55930;47.412;8.790;2023-06-19T00:06:16;7.47;;;4.95;;
68888;SDS011;55930;47.412;8.790;2023-06-19T00:09:37;6.80;;;5.10;;
68888;SDS011;55930;47.412;8.790;2023-06-19T00:16:17;7.87;;;5.33;;
68888;SDS011;55930;47.412;8.790;2023-06-19T00:19:39;5.68;;;5.15;;
68888;SDS011;55930;47.412;8.790;2023-06-19T00:26:19;6.20;;;5.60;;
68888;SDS011;55930;47.412;8.790;2023-06-19T00:29:42;7.22;;;5.05;;
68888;SDS011;55930;47.412;8.790;2023-06-19T00:36:23;6.07;;;5.20;;
68888;SDS011;55930;47.412;8.790;2023-06-19T00:39:46;6.97;;;5.68;;
68888;SDS011;55930;47.412;8.790;2023-06-19T00:46:26;7.20;;;5.80;;
68888;SDS011;55930;47.412;8.790;2023-06-19T00:53:07;6.80;;;6.10;;
68888;SDS011;55930;47.412;8.790;2023-06-19T00:56:31;8.25;;;6.60;;
68888;SDS011;55930;47.412;8.790;2023-06-19T00:59:52;6.32;;;5.65;;
68888;SDS011;55930;47.412;8.790;2023-06-19T01:06:45;6.63;;;5.83;;
68888;SDS011;55930;47.412;8.790;2023-06-19T01:10:14;6.47;;;5.68;;
68888;SDS011;55930;47.412;8.790;2023-06-19T01:13:50;7.43;;;5.47;;
68888;SDS011;55930;47.412;8.790;2023-06-19T01:17:18;7.20;;;5.85;;
68888;SDS011;55930;47.412;8.790;2023-06-19T01:23:59;5.77;;;5.17;;
68888;SDS011;55930;47.412;8.790;2023-06-19T01:27:23;6.60;;;5.53;;
68888;SDS011;55930;47.412;8.790;2023-06-19T01:30:54;6.20;;;5.60;;
68888;SDS011;55930;47.412;8.790;2023-06-19T01:34:18;7.00;;;5.25;;
68888;SDS011;55930;47.412;8.790;2023-06-19T01:37:41;7.05;;;5.57;;
68888;SDS011;55930;47.412;8.790;2023-06-19T01:41:05;6.53;;;5.88;;
68888;SDS011;55930;47.412;8.790;2023-06-19T01:44:28;6.63;;;5.68;;
68888;SDS011;55930;47.412;8.790;2023-06-19T01:51:09;6.93;;;5.77;;
68888;SDS011;55930;47.412;8.790;2023-06-19T01:57:52;8.52;;;6.03;;
68888;SDS011;55930;47.412;8.790;2023-06-19T02:04:33;6.70;;;5.40;;
68888;SDS011;55930;47.412;8.790;2023-06-19T02:11:14;6.73;;;6.00;;
68888;SDS011;55930;47.412;8.790;2023-06-19T02:14:37;6.88;;;5.85;;
68888;SDS011;55930;47.412;8.790;2023-06-19T02:21:17;7.77;;;6.70;;
68888;SDS011;55930;47.412;8.790;2023-06-19T02:24:38;8.00;;;6.75;;
68888;SDS011;55930;47.412;8.790;2023-06-19T02:27:59;7.40;;;6.70;;
68888;SDS011;55930;47.412;8.790;2023-06-19T02:34:44;7.68;;;6.97;;
68888;SDS011;55930;47.412;8.790;2023-06-19T02:38:05;8.75;;;7.43;;
68888;SDS011;55930;47.412;8.790;2023-06-19T02:44:46;8.87;;;7.47;;
68888;SDS011;55930;47.412;8.790;2023-06-19T02:51:26;9.27;;;7.63;;
68888;SDS011;55930;47.412;8.790;2023-06-19T02:58:07;12.53;;;7.63;;
68888;SDS011;55930;47.412;8.790;2023-06-19T03:04:47;8.33;;;7.40;;
68888;SDS011;55930;47.412;8.790;2023-06-19T03:08:09;9.60;;;8.20;;
68888;SDS011;55930;47.412;8.790;2023-06-19T03:14:52;11.30;;;8.67;;
68888;SDS011;55930;47.412;8.790;2023-06-19T03:18:14;13.38;;;9.13;;
68888;SDS011;55930;47.412;8.790;2023-06-19T03:24:55;15.23;;;9.87;;
68888;SDS011;55930;47.412;8.790;2023-06-19T03:31:36;13.90;;;9.83;;
68888;SDS011;55930;47.412;8.790;2023-06-19T03:38:16;14.67;;;10.17;;
68888;SDS011;55930;47.412;8.790;2023-06-19T03:44:57;13.57;;;10.37;;
68888;SDS011;55930;47.412;8.790;2023-06-19T03:51:38;16.30;;;10.33;;
68888;SDS011;55930;47.412;8.790;2023-06-19T03:58:19;15.00;;;10.97;;
68888;SDS011;55930;47.412;8.790;2023-06-19T04:05:00;12.13;;;10.87;;
68888;SDS011;55930;47.412;8.790;2023-06-19T04:11:41;12.57;;;10.77;;
68888;SDS011;55930;47.412;8.790;2023-06-19T04:18:22;14.93;;;11.10;;
68888;SDS011;55930;47.412;8.790;2023-06-19T04:25:02;13.00;;;11.70;;
68888;SDS011;55930;47.412;8.790;2023-06-19T04:31:46;15.87;;;12.37;;
68888;SDS011;55930;47.412;8.790;2023-06-19T04:35:09;13.35;;;10.45;;
68888;SDS011;55930;47.412;8.790;2023-06-19T04:41:50;14.57;;;11.37;;
68888;SDS011;55930;47.412;8.790;2023-06-19T04:48:31;13.67;;;11.53;;
68888;SDS011;55930;47.412;8.790;2023-06-19T04:55:12;12.73;;;11.43;;
68888;SDS011;55930;47.412;8.790;2023-06-19T05:01:55;14.27;;;10.63;;
68888;SDS011;55930;47.412;8.790;2023-06-19T05:05:16;13.93;;;11.90;;
68888;SDS011;55930;47.412;8.790;2023-06-19T05:11:57;14.73;;;11.33;;
68888;SDS011;55930;47.412;8.790;2023-06-19T05:18:41;11.90;;;10.80;;
68888;SDS011;55930;47.412;8.790;2023-06-19T05:22:02;12.45;;;11.18;;
68888;SDS011;55930;47.412;8.790;2023-06-19T05:28:43;13.03;;;10.50;;
68888;SDS011;55930;47.412;8.790;2023-06-19T05:35:26;12.20;;;11.00;;
68888;SDS011;55930;47.412;8.790;2023-06-19T05:42:07;12.40;;;11.30;;
68888;SDS011;55930;47.412;8.790;2023-06-19T05:48:48;12.40;;;11.10;;
68888;SDS011;55930;47.412;8.790;2023-06-19T05:55:29;12.30;;;10.60;;
68888;SDS011;55930;47.412;8.790;2023-06-19T06:02:12;10.73;;;9.63;;
68888;SDS011;55930;47.412;8.790;2023-06-19T06:05:33;10.30;;;9.25;;
68888;SDS011;55930;47.412;8.790;2023-06-19T06:12:15;8.75;;;7.82;;
68888;SDS011;55930;47.412;8.790;2023-06-19T06:18:58;10.00;;;8.10;;
68888;SDS011;55930;47.412;8.790;2023-06-19T06:25:39;11.20;;;7.63;;
68888;SDS011;55930;47.412;8.790;2023-06-19T06:32:20;7.50;;;6.73;;
68888;SDS011;55930;47.412;8.790;2023-06-19T06:39:04;9.40;;;5.90;;
68888;SDS011;55930;47.412;8.790;2023-06-19T06:45:44;5.03;;;4.13;;
68888;SDS011;55930;47.412;8.790;2023-06-19T06:52:25;4.67;;;3.60;;
68888;SDS011;55930;47.412;8.790;2023-06-19T06:59:08;3.67;;;3.37;;
68888;SDS011;55930;47.412;8.790;2023-06-19T07:02:28;4.13;;;3.10;;
68888;SDS011;55930;47.412;8.790;2023-06-19T07:09:09;4.20;;;3.23;;
68888;SDS011;55930;47.412;8.790;2023-06-19T07:12:30;4.35;;;3.00;;
68888;SDS011;55930;47.412;8.790;2023-06-19T07:15:52;7.45;;;3.80;;
68888;SDS011;55930;47.412;8.790;2023-06-19T07:19:15;4.38;;;3.47;;
68888;SDS011;55930;47.412;8.790;2023-06-19T07:22:36;3.60;;;3.30;;
68888;SDS011;55930;47.412;8.790;2023-06-19T07:25:57;5.72;;;3.65;;
68888;SDS011;55930;47.412;8.790;2023-06-19T07:29:17;4.25;;;3.67;;
68888;SDS011;55930;47.412;8.790;2023-06-19T07:32:38;4.10;;;3.70;;
68888;SDS011;55930;47.412;8.790;2023-06-19T07:35:58;5.82;;;4.55;;
68888;SDS011;55930;47.412;8.790;2023-06-19T07:39:18;4.75;;;4.10;;
68888;SDS011;55930;47.412;8.790;2023-06-19T07:42:39;5.03;;;3.85;;
68888;SDS011;55930;47.412;8.790;2023-06-19T07:46:02;4.50;;;4.10;;
68888;SDS011;55930;47.412;8.790;2023-06-19T07:49:22;5.22;;;4.72;;
68888;SDS011;55930;47.412;8.790;2023-06-19T07:52:46;5.40;;;3.83;;
68888;SDS011;55930;47.412;8.790;2023-06-19T07:56:10;5.65;;;4.40;;
68888;SDS011;55930;47.412;8.790;2023-06-19T07:59:32;4.95;;;4.45;;
68888;SDS011;55930;47.412;8.790;2023-06-19T08:02:52;5.85;;;4.38;;
68888;SDS011;55930;47.412;8.790;2023-06-19T08:06:13;5.07;;;4.40;;
68888;SDS011;55930;47.412;8.790;2023-06-19T08:09:33;5.63;;;4.25;;
68888;SDS011;55930;47.412;8.790;2023-06-19T08:12:54;6.70;;;4.63;;
68888;SDS011;55930;47.412;8.790;2023-06-19T08:16:14;5.47;;;4.07;;
68888;SDS011;55930;47.412;8.790;2023-06-19T08:19:35;5.88;;;4.32;;
68888;SDS011;55930;47.412;8.790;2023-06-19T08:22:55;5.05;;;4.55;;
68888;SDS011;55930;47.412;8.790;2023-06-19T08:26:16;5.28;;;4.70;;
68888;SDS011;55930;47.412;8.790;2023-06-19T08:29:38;6.85;;;4.63;;
68888;SDS011;55930;47.412;8.790;2023-06-19T08:32:58;4.88;;;4.38;;
68888;SDS011;55930;47.412;8.790;2023-06-19T08:36:21;5.38;;;4.88;;
68888;SDS011;55930;47.412;8.790;2023-06-19T08:39:41;6.40;;;5.13;;
68888;SDS011;55930;47.412;8.790;2023-06-19T08:43:02;5.43;;;4.68;;
68888;SDS011;55930;47.412;8.790;2023-06-19T08:46:23;6.25;;;4.45;;
68888;SDS011;55930;47.412;8.790;2023-06-19T08:49:43;4.80;;;4.20;;
68888;SDS011;55930;47.412;8.790;2023-06-19T08:53:04;4.63;;;3.95;;
68888;SDS011;55930;47.412;8.790;2023-06-19T08:56:24;4.95;;;4.45;;
68888;SDS011;55930;47.412;8.790;2023-06-19T08:59:48;4.68;;;3.83;;
68888;SDS011;55930;47.412;8.790;2023-06-19T09:03:10;6.13;;;5.13;;
68888;SDS011;55930;47.412;8.790;2023-06-19T09:06:30;6.32;;;5.25;;
68888;SDS011;55930;47.412;8.790;2023-06-19T09:09:51;6.05;;;5.40;;
68888;SDS011;55930;47.412;8.790;2023-06-19T09:13:11;5.55;;;5.05;;
68888;SDS011;55930;47.412;8.790;2023-06-19T09:16:40;6.55;;;5.45;;
68888;SDS011;55930;47.412;8.790;2023-06-19T09:20:01;14.20;;;8.05;;
68888;SDS011;55930;47.412;8.790;2023-06-19T09:23:24;5.90;;;5.13;;
68888;SDS011;55930;47.412;8.790;2023-06-19T09:26:47;6.10;;;5.60;;
68888;SDS011;55930;47.412;8.790;2023-06-19T09:30:14;6.35;;;5.75;;
68888;SDS011;55930;47.412;8.790;2023-06-19T09:33:36;6.32;;;5.72;;
68888;SDS011;55930;47.412;8.790;2023-06-19T09:36:57;6.22;;;5.05;;
68888;SDS011;55930;47.412;8.790;2023-06-19T09:40:18;6.32;;;4.80;;
68888;SDS011;55930;47.412;8.790;2023-06-19T09:43:40;5.25;;;4.75;;
68888;SDS011;55930;47.412;8.790;2023-06-19T09:47:03;5.03;;;4.53;;
68888;SDS011;55930;47.412;8.790;2023-06-19T09:50:37;5.82;;;4.20;;
68888;SDS011;55930;47.412;8.790;2023-06-19T09:54:01;4.88;;;4.45;;
68888;SDS011;55930;47.412;8.790;2023-06-19T09:57:23;5.20;;;4.68;;
68888;SDS011;55930;47.412;8.790;2023-06-19T10:00:44;5.70;;;4.45;;
68888;SDS011;55930;47.412;8.790;2023-06-19T10:04:11;6.88;;;4.30;;
68888;SDS011;55930;47.412;8.790;2023-06-19T10:07:35;5.15;;;4.63;;
68888;SDS011;55930;47.412;8.790;2023-06-19T10:10:55;6.07;;;4.22;;
68888;SDS011;55930;47.412;8.790;2023-06-19T10:14:20;6.05;;;4.70;;
68888;SDS011;55930;47.412;8.790;2023-06-19T10:17:49;5.47;;;4.55;;
68888;SDS011;55930;47.412;8.790;2023-06-19T10:21:15;4.40;;;4.00;;
68888;SDS011;55930;47.412;8.790;2023-06-19T10:24:40;4.63;;;4.22;;
68888;SDS011;55930;47.412;8.790;2023-06-19T10:28:19;5.55;;;5.05;;
68888;SDS011;55930;47.412;8.790;2023-06-19T10:31:50;5.88;;;5.28;;
68888;SDS011;55930;47.412;8.790;2023-06-19T10:35:14;5.32;;;4.82;;
68888;SDS011;55930;47.412;8.790;2023-06-19T10:38:36;5.00;;;4.50;;
68888;SDS011;55930;47.412;8.790;2023-06-19T10:41:56;5.32;;;4.13;;
68888;SDS011;55930;47.412;8.790;2023-06-19T10:45:17;5.32;;;4.22;;
68888;SDS011;55930;47.412;8.790;2023-06-19T10:48:37;4.05;;;3.67;;
68888;SDS011;55930;47.412;8.790;2023-06-19T10:51:59;4.38;;;3.97;;
68888;SDS011;55930;47.412;8.790;2023-06-19T10:55:20;6.18;;;4.43;;
68888;SDS011;55930;47.412;8.790;2023-06-19T10:58:41;3.90;;;3.47;;
68888;SDS011;55930;47.412;8.790;2023-06-19T11:02:02;4.75;;;4.25;;
68888;SDS011;55930;47.412;8.790;2023-06-19T11:05:23;3.88;;;3.42;;
68888;SDS011;55930;47.412;8.790;2023-06-19T11:08:50;4.55;;;3.70;;
68888;SDS011;55930;47.412;8.790;2023-06-19T11:12:18;4.05;;;3.20;;
68888;SDS011;55930;47.412;8.790;2023-06-19T11:15:42;3.95;;;2.97;;
68888;SDS011;55930;47.412;8.790;2023-06-19T11:19:07;3.80;;;3.30;;
68888;SDS011;55930;47.412;8.790;2023-06-19T11:22:37;3.15;;;2.67;;
68888;SDS011;55930;47.412;8.790;2023-06-19T11:26:04;3.45;;;3.00;;
68888;SDS011;55930;47.412;8.790;2023-06-19T11:29:26;4.15;;;2.90;;
68888;SDS011;55930;47.412;8.790;2023-06-19T11:32:49;4.28;;;3.20;;
68888;SDS011;55930;47.412;8.790;2023-06-19T11:36:12;4.07;;;3.25;;
68888;SDS011;55930;47.412;8.790;2023-06-19T11:39:32;3.67;;;3.20;;
68888;SDS011;55930;47.412;8.790;2023-06-19T11:42:53;3.35;;;2.92;;
68888;SDS011;55930;47.412;8.790;2023-06-19T11:46:13;4.40;;;2.80;;
68888;SDS011;55930;47.412;8.790;2023-06-19T11:49:36;4.38;;;3.33;;
68888;SDS011;55930;47.412;8.790;2023-06-19T11:52:56;4.28;;;3.53;;
68888;SDS011;55930;47.412;8.790;2023-06-19T11:56:21;4.00;;;3.20;;
68888;SDS011;55930;47.412;8.790;2023-06-19T11:59:41;6.65;;;3.58;;
68888;SDS011;55930;47.412;8.790;2023-06-19T12:03:02;4.35;;;3.67;;
68888;SDS011;55930;47.412;8.790;2023-06-19T12:06:23;3.95;;;3.50;;
68888;SDS011;55930;47.412;8.790;2023-06-19T12:09:46;5.65;;;3.38;;
68888;SDS011;55930;47.412;8.790;2023-06-19T12:13:09;5.15;;;3.42;;
68888;SDS011;55930;47.412;8.790;2023-06-19T12:16:29;4.97;;;3.35;;
68888;SDS011;55930;47.412;8.790;2023-06-19T12:19:50;4.68;;;3.70;;
68888;SDS011;55930;47.412;8.790;2023-06-19T12:23:10;6.03;;;3.97;;
68888;SDS011;55930;47.412;8.790;2023-06-19T12:26:31;4.57;;;3.70;;
68888;SDS011;55930;47.412;8.790;2023-06-19T12:29:56;4.22;;;3.80;;
68888;SDS011;55930;47.412;8.790;2023-06-19T12:33:17;5.00;;;3.50;;
68888;SDS011;55930;47.412;8.790;2023-06-19T12:36:38;4.95;;;3.80;;
68888;SDS011;55930;47.412;8.790;2023-06-19T12:40:01;4.40;;;3.97;;
68888;SDS011;55930;47.412;8.790;2023-06-19T12:43:28;4.32;;;3.85;;
68888;SDS011;55930;47.412;8.790;2023-06-19T12:46:48;5.38;;;3.92;;
68888;SDS011;55930;47.412;8.790;2023-06-19T12:50:08;5.75;;;3.95;;
68888;SDS011;55930;47.412;8.790;2023-06-19T12:53:30;4.95;;;3.53;;
68888;SDS011;55930;47.412;8.790;2023-06-19T12:56:50;4.80;;;3.83;;
68888;SDS011;55930;47.412;8.790;2023-06-19T13:00:11;5.25;;;4.00;;
68888;SDS011;55930;47.412;8.790;2023-06-19T13:03:32;4.97;;;4.05;;
68888;SDS011;55930;47.412;8.790;2023-06-19T13:06:53;4.53;;;4.13;;
68888;SDS011;55930;47.412;8.790;2023-06-19T13:10:13;4.20;;;3.80;;
68888;SDS011;55930;47.412;8.790;2023-06-19T13:13:34;5.88;;;3.88;;
68888;SDS011;55930;47.412;8.790;2023-06-19T13:16:54;5.30;;;3.58;;
68888;SDS011;55930;47.412;8.790;2023-06-19T13:20:17;3.63;;;3.25;;
68888;SDS011;55930;47.412;8.790;2023-06-19T13:23:37;4.28;;;3.80;;
68888;SDS011;55930;47.412;8.790;2023-06-19T13:27:00;4.10;;;3.50;;
68888;SDS011;55930;47.412;8.790;2023-06-19T13:30:20;3.90;;;3.60;;
68888;SDS011;55930;47.412;8.790;2023-06-19T13:33:41;3.72;;;3.30;;
68888;SDS011;55930;47.412;8.790;2023-06-19T13:37:01;4.22;;;3.78;;
68888;SDS011;55930;47.412;8.790;2023-06-19T13:40:23;4.10;;;3.70;;
68888;SDS011;55930;47.412;8.790;2023-06-19T13:43:43;4.28;;;3.88;;
68888;SDS011;55930;47.412;8.790;2023-06-19T13:47:06;4.30;;;3.67;;
68888;SDS011;55930;47.412;8.790;2023-06-19T13:50:27;7.32;;;4.03;;
68888;SDS011;55930;47.412;8.790;2023-06-19T13:53:47;4.82;;;3.70;;
68888;SDS011;55930;47.412;8.790;2023-06-19T13:57:08;4.70;;;3.63;;
68888;SDS011;55930;47.412;8.790;2023-06-19T14:00:28;3.83;;;3.42;;
68888;SDS011;55930;47.412;8.790;2023-06-19T14:03:49;4.03;;;3.30;;
68888;SDS011;55930;47.412;8.790;2023-06-19T14:07:09;5.45;;;3.25;;
68888;SDS011;55930;47.412;8.790;2023-06-19T14:10:30;3.67;;;3.30;;
68888;SDS011;55930;47.412;8.790;2023-06-19T14:13:50;4.18;;;3.75;;
68888;SDS011;55930;47.412;8.790;2023-06-19T14:17:11;3.97;;;3.58;;
68888;SDS011;55930;47.412;8.790;2023-06-19T14:20:31;5.90;;;3.97;;
68888;SDS011;55930;47.412;8.790;2023-06-19T14:23:52;6.43;;;3.80;;
68888;SDS011;55930;47.412;8.790;2023-06-19T14:27:12;4.03;;;3.38;;
68888;SDS011;55930;47.412;8.790;2023-06-19T14:30:35;5.95;;;3.50;;
68888;SDS011;55930;47.412;8.790;2023-06-19T14:33:55;5.38;;;3.50;;
68888;SDS011;55930;47.412;8.790;2023-06-19T14:37:16;3.97;;;3.58;;
68888;SDS011;55930;47.412;8.790;2023-06-19T14:40:38;4.57;;;3.42;;
68888;SDS011;55930;47.412;8.790;2023-06-19T14:43:59;7.75;;;3.83;;
68888;SDS011;55930;47.412;8.790;2023-06-19T14:47:19;4.28;;;3.88;;
68888;SDS011;55930;47.412;8.790;2023-06-19T14:50:42;6.03;;;3.83;;
68888;SDS011;55930;47.412;8.790;2023-06-19T14:54:02;5.93;;;4.05;;
68888;SDS011;55930;47.412;8.790;2023-06-19T14:57:24;4.20;;;3.58;;
68888;SDS011;55930;47.412;8.790;2023-06-19T15:00:45;4.57;;;4.18;;
68888;SDS011;55930;47.412;8.790;2023-06-19T15:04:05;5.88;;;4.72;;
68888;SDS011;55930;47.412;8.790;2023-06-19T15:07:26;5.43;;;4.38;;
68888;SDS011;55930;47.412;8.790;2023-06-19T15:10:47;6.43;;;4.68;;
68888;SDS011;55930;47.412;8.790;2023-06-19T15:14:08;6.35;;;5.13;;
68888;SDS011;55930;47.412;8.790;2023-06-19T15:17:29;4.85;;;4.43;;
68888;SDS011;55930;47.412;8.790;2023-06-19T15:20:49;5.97;;;4.25;;
68888;SDS011;55930;47.412;8.790;2023-06-19T15:24:10;6.43;;;5.22;;
68888;SDS011;55930;47.412;8.790;2023-06-19T15:27:30;4.95;;;4.45;;
68888;SDS011;55930;47.412;8.790;2023-06-19T15:30:50;6.28;;;4.65;;
68888;SDS011;55930;47.412;8.790;2023-06-19T15:34:11;5.80;;;4.85;;
68888;SDS011;55930;47.412;8.790;2023-06-19T15:37:31;4.80;;;4.40;;
68888;SDS011;55930;47.412;8.790;2023-06-19T15:40:51;6.28;;;4.22;;
68888;SDS011;55930;47.412;8.790;2023-06-19T15:44:13;6.05;;;4.07;;
68888;SDS011;55930;47.412;8.790;2023-06-19T15:47:34;5.40;;;4.80;;
68888;SDS011;55930;47.412;8.790;2023-06-19T15:50:54;5.25;;;4.75;;
68888;SDS011;55930;47.412;8.790;2023-06-19T15:54:15;6.35;;;4.13;;
68888;SDS011;55930;47.412;8.790;2023-06-19T15:57:35;7.20;;;4.80;;
68888;SDS011;55930;47.412;8.790;2023-06-19T16:00:56;6.00;;;4.78;;
68888;SDS011;55930;47.412;8.790;2023-06-19T16:04:16;5.65;;;4.30;;
68888;SDS011;55930;47.412;8.790;2023-06-19T16:07:36;9.50;;;4.82;;
68888;SDS011;55930;47.412;8.790;2023-06-19T16:10:57;4.70;;;4.20;;
68888;SDS011;55930;47.412;8.790;2023-06-19T16:14:17;10.50;;;5.07;;
68888;SDS011;55930;47.412;8.790;2023-06-19T16:17:38;6.28;;;4.78;;
68888;SDS011;55930;47.412;8.790;2023-06-19T16:21:02;6.40;;;4.80;;
68888;SDS011;55930;47.412;8.790;2023-06-19T16:24:22;4.38;;;3.60;;
68888;SDS011;55930;47.412;8.790;2023-06-19T16:27:43;3.95;;;3.30;;
68888;SDS011;55930;47.412;8.790;2023-06-19T16:31:03;4.45;;;3.50;;
68888;SDS011;55930;47.412;8.790;2023-06-19T16:34:23;5.25;;;2.80;;
68888;SDS011;55930;47.412;8.790;2023-06-19T16:37:44;2.22;;;1.90;;
68888;SDS011;55930;47.412;8.790;2023-06-19T16:41:05;2.97;;;2.00;;
68888;SDS011;55930;47.412;8.790;2023-06-19T16:44:25;3.17;;;2.33;;
68888;SDS011;55930;47.412;8.790;2023-06-19T16:47:45;3.67;;;2.60;;
68888;SDS011;55930;47.412;8.790;2023-06-19T16:51:08;2.80;;;2.40;;
68888;SDS011;55930;47.412;8.790;2023-06-19T16:54:28;7.55;;;3.00;;
68888;SDS011;55930;47.412;8.790;2023-06-19T16:57:49;3.30;;;2.67;;
68888;SDS011;55930;47.412;8.790;2023-06-19T17:01:10;3.53;;;2.53;;
68888;SDS011;55930;47.412;8.790;2023-06-19T17:04:33;4.25;;;3.60;;
68888;SDS011;55930;47.412;8.790;2023-06-19T17:07:53;3.70;;;3.10;;
68888;SDS011;55930;47.412;8.790;2023-06-19T17:11:14;3.33;;;2.90;;
68888;SDS011;55930;47.412;8.790;2023-06-19T17:14:34;4.80;;;3.33;;
68888;SDS011;55930;47.412;8.790;2023-06-19T17:17:59;3.47;;;3.13;;
68888;SDS011;55930;47.412;8.790;2023-06-19T17:21:19;3.33;;;3.03;;
68888;SDS011;55930;47.412;8.790;2023-06-19T17:24:40;5.28;;;3.00;;
68888;SDS011;55930;47.412;8.790;2023-06-19T17:28:00;3.75;;;2.95;;
68888;SDS011;55930;47.412;8.790;2023-06-19T17:31:21;4.32;;;3.22;;
68888;SDS011;55930;47.412;8.790;2023-06-19T17:34:41;5.00;;;3.22;;
68888;SDS011;55930;47.412;8.790;2023-06-19T17:38:01;5.72;;;3.15;;
68888;SDS011;55930;47.412;8.790;2023-06-19T17:41:22;2.90;;;2.60;;
68888;SDS011;55930;47.412;8.790;2023-06-19T17:44:42;3.38;;;3.08;;
68888;SDS011;55930;47.412;8.790;2023-06-19T17:48:03;4.60;;;3.33;;
68888;SDS011;55930;47.412;8.790;2023-06-19T17:51:23;3.97;;;2.88;;
68888;SDS011;55930;47.412;8.790;2023-06-19T17:54:44;3.30;;;2.80;;
68888;SDS011;55930;47.412;8.790;2023-06-19T17:58:09;4.07;;;2.78;;
68888;SDS011;55930;47.412;8.790;2023-06-19T18:01:30;5.40;;;2.83;;
68888;SDS011;55930;47.412;8.790;2023-06-19T18:04:50;3.20;;;2.85;;
68888;SDS011;55930;47.412;8.790;2023-06-19T18:08:11;3.60;;;2.55;;
68888;SDS011;55930;47.412;8.790;2023-06-19T18:11:31;3.15;;;2.80;;
68888;SDS011;55930;47.412;8.790;2023-06-19T18:14:52;3.83;;;2.55;;
68888;SDS011;55930;47.412;8.790;2023-06-19T18:18:12;3.17;;;2.35;;
68888;SDS011;55930;47.412;8.790;2023-06-19T18:21:33;3.40;;;2.65;;
68888;SDS011;55930;47.412;8.790;2023-06-19T18:24:53;4.97;;;3.03;;
68888;SDS011;55930;47.412;8.790;2023-06-19T18:28:16;3.20;;;2.70;;
68888;SDS011;55930;47.412;8.790;2023-06-19T18:31:37;6.53;;;3.33;;
68888;SDS011;55930;47.412;8.790;2023-06-19T18:34:57;3.63;;;2.88;;
68888;SDS011;55930;47.412;8.790;2023-06-19T18:38:20;4.75;;;3.10;;
68888;SDS011;55930;47.412;8.790;2023-06-19T18:41:40;3.28;;;2.85;;
68888;SDS011;55930;47.412;8.790;2023-06-19T18:45:01;4.68;;;2.95;;
68888;SDS011;55930;47.412;8.790;2023-06-19T18:48:21;4.28;;;2.97;;
68888;SDS011;55930;47.412;8.790;2023-06-19T18:51:44;4.03;;;2.97;;
68888;SDS011;55930;47.412;8.790;2023-06-19T18:55:04;4.10;;;2.88;;
68888;SDS011;55930;47.412;8.790;2023-06-19T18:58:25;4.78;;;3.10;;
68888;SDS011;55930;47.412;8.790;2023-06-19T19:01:45;3.95;;;3.00;;
68888;SDS011;55930;47.412;8.790;2023-06-19T19:05:06;4.75;;;2.90;;
68888;SDS011;55930;47.412;8.790;2023-06-19T19:08:27;6.45;;;3.20;;
68888;SDS011;55930;47.412;8.790;2023-06-19T19:11:50;5.28;;;3.60;;
68888;SDS011;55930;47.412;8.790;2023-06-19T19:15:10;3.67;;;2.78;;
68888;SDS011;55930;47.412;8.790;2023-06-19T19:18:31;3.60;;;3.10;;
68888;SDS011;55930;47.412;8.790;2023-06-19T19:21:51;6.90;;;3.08;;
68888;SDS011;55930;47.412;8.790;2023-06-19T19:25:12;4.05;;;3.10;;
68888;SDS011;55930;47.412;8.790;2023-06-19T19:28:32;4.90;;;2.90;;
68888;SDS011;55930;47.412;8.790;2023-06-19T19:31:53;3.72;;;3.17;;
68888;SDS011;55930;47.412;8.790;2023-06-19T19:35:13;5.82;;;3.40;;
68888;SDS011;55930;47.412;8.790;2023-06-19T19:38:34;5.28;;;3.33;;
68888;SDS011;55930;47.412;8.790;2023-06-19T19:41:54;3.92;;;3.53;;
68888;SDS011;55930;47.412;8.790;2023-06-19T19:45:14;5.47;;;3.30;;
68888;SDS011;55930;47.412;8.790;2023-06-19T19:48:35;5.70;;;3.55;;
68888;SDS011;55930;47.412;8.790;2023-06-19T19:51:55;4.63;;;3.72;;
68888;SDS011;55930;47.412;8.790;2023-06-19T19:55:16;5.65;;;3.90;;
68888;SDS011;55930;47.412;8.790;2023-06-19T19:58:36;4.28;;;3.70;;
68888;SDS011;55930;47.412;8.790;2023-06-19T20:01:57;4.53;;;3.85;;
68888;SDS011;55930;47.412;8.790;2023-06-19T20:05:17;4.57;;;3.40;;
68888;SDS011;55930;47.412;8.790;2023-06-19T20:08:40;6.18;;;3.63;;
68888;SDS011;55930;47.412;8.790;2023-06-19T20:12:01;4.20;;;3.80;;
68888;SDS011;55930;47.412;8.790;2023-06-19T20:15:22;5.07;;;4.50;;
68888;SDS011;55930;47.412;8.790;2023-06-19T20:18:45;4.38;;;3.33;;
68888;SDS011;55930;47.412;8.790;2023-06-19T20:22:07;4.97;;;3.13;;
68888;SDS011;55930;47.412;8.790;2023-06-19T20:25:28;4.90;;;3.53;;
68888;SDS011;55930;47.412;8.790;2023-06-19T20:28:48;4.13;;;3.20;;
68888;SDS011;55930;47.412;8.790;2023-06-19T20:32:09;6.03;;;3.75;;
68888;SDS011;55930;47.412;8.790;2023-06-19T20:35:29;4.10;;;3.25;;
68888;SDS011;55930;47.412;8.790;2023-06-19T20:38:50;4.47;;;3.70;;
68888;SDS011;55930;47.412;8.790;2023-06-19T20:42:10;4.20;;;2.88;;
68888;SDS011;55930;47.412;8.790;2023-06-19T20:45:31;6.47;;;3.33;;
68888;SDS011;55930;47.412;8.790;2023-06-19T20:48:51;3.90;;;3.03;;
68888;SDS011;55930;47.412;8.790;2023-06-19T20:52:11;6.20;;;3.53;;
68888;SDS011;55930;47.412;8.790;2023-06-19T20:55:32;4.57;;;3.45;;
68888;SDS011;55930;47.412;8.790;2023-06-19T20:58:52;5.00;;;3.35;;
68888;SDS011;55930;47.412;8.790;2023-06-19T21:02:16;4.55;;;3.50;;
68888;SDS011;55930;47.412;8.790;2023-06-19T21:05:37;4.60;;;3.22;;
68888;SDS011;55930;47.412;8.790;2023-06-19T21:08:57;4.25;;;2.97;;
68888;SDS011;55930;47.412;8.790;2023-06-19T21:12:19;4.88;;;3.28;;
68888;SDS011;55930;47.412;8.790;2023-06-19T21:15:39;4.43;;;3.35;;
68888;SDS011;55930;47.412;8.790;2023-06-19T21:19:00;5.95;;;3.00;;
68888;SDS011;55930;47.412;8.790;2023-06-19T21:22:20;5.63;;;2.80;;
68888;SDS011;55930;47.412;8.790;2023-06-19T21:25:40;7.43;;;3.72;;
68888;SDS011;55930;47.412;8.790;2023-06-19T21:29:01;4.65;;;3.10;;
68888;SDS011;55930;47.412;8.790;2023-06-19T21:32:22;4.68;;;2.80;;
68888;SDS011;55930;47.412;8.790;2023-06-19T21:35:42;7.10;;;3.65;;
68888;SDS011;55930;47.412;8.790;2023-06-19T21:39:03;4.22;;;3.38;;
68888;SDS011;55930;47.412;8.790;2023-06-19T21:42:23;4.90;;;3.75;;
68888;SDS011;55930;47.412;8.790;2023-06-19T21:45:43;4.05;;;3.00;;
68888;SDS011;55930;47.412;8.790;2023-06-19T21:49:04;4.75;;;3.53;;
68888;SDS011;55930;47.412;8.790;2023-06-19T21:52:24;4.07;;;2.80;;
68888;SDS011;55930;47.412;8.790;2023-06-19T21:55:45;4.20;;;2.50;;
68888;SDS011;55930;47.412;8.790;2023-06-19T21:59:08;4.05;;;3.25;;
68888;SDS011;55930;47.412;8.790;2023-06-19T22:02:28;5.75;;;2.97;;
68888;SDS011;55930;47.412;8.790;2023-06-19T22:05:49;4.80;;;2.63;;
68888;SDS011;55930;47.412;8.790;2023-06-19T22:09:09;3.40;;;2.70;;
68888;SDS011;55930;47.412;8.790;2023-06-19T22:12:30;4.30;;;3.08;;
68888;SDS011;55930;47.412;8.790;2023-06-19T22:19:11;6.23;;;3.30;;
68888;SDS011;55930;47.412;8.790;2023-06-19T22:25:51;4.60;;;3.23;;
68888;SDS011;55930;47.412;8.790;2023-06-19T22:32:33;4.63;;;3.43;;
68888;SDS011;55930;47.412;8.790;2023-06-19T22:35:53;4.30;;;3.75;;
68888;SDS011;55930;47.412;8.790;2023-06-19T22:39:13;5.05;;;3.75;;
68888;SDS011;55930;47.412;8.790;2023-06-19T22:45:55;5.40;;;3.70;;
68888;SDS011;55930;47.412;8.790;2023-06-19T22:52:36;4.07;;;3.30;;
68888;SDS011;55930;47.412;8.790;2023-06-19T22:55:56;4.20;;;3.40;;
68888;SDS011;55930;47.412;8.790;2023-06-19T23:02:38;5.47;;;3.83;;
68888;SDS011;55930;47.412;8.790;2023-06-19T23:06:04;5.90;;;3.80;;
68888;SDS011;55930;47.412;8.790;2023-06-19T23:09:27;9.57;;;3.92;;
68888;SDS011;55930;47.412;8.790;2023-06-19T23:12:50;4.93;;;4.43;;
68888;SDS011;55930;47.412;8.790;2023-06-19T23:19:31;5.20;;;4.30;;
68888;SDS011;55930;47.412;8.790;2023-06-19T23:22:51;4.32;;;3.65;;